Time;durP1;ratioP1;P1;durP2;ratioP2;P2;SDS_P1;SDS_P2;PMS_P1;PMS_P2;Temp;Humidity;BMP_temperature;BMP_pressure;BME280_temperature;BME280_humidity;BME280_pressure;Samples;Min_cycle;Max_cycle;Signal;HPM_P1;HPM_P2
2022/11/10 00:00:27;;;;;;;11.10;3.42;;;13.50;99.90;;;;;;5048612;28;25082;-76
2022/11/10 00:02:52;;;;;;;14.90;3.45;;;13.50;99.90;;;;;;5062854;28;25146;-76
2022/11/10 00:05:18;;;;;;;18.08;4.25;;;13.50;99.90;;;;;;5066229;28;25067;-75
2022/11/10 00:07:44;;;;;;;21.23;3.92;;;13.50;99.90;;;;;;5064286;28;25140;-76
2022/11/10 00:10:09;;;;;;;17.83;4.10;;;13.50;99.90;;;;;;5068706;28;25103;-77
2022/11/10 00:12:35;;;;;;;21.05;4.72;;;13.40;99.90;;;;;;5064219;28;25090;-76
2022/11/10 00:17:45;;;;;;;20.33;3.75;;;13.50;99.90;;;;;;5065996;28;25138;-74
2022/11/10 00:20:11;;;;;;;16.13;4.03;;;13.50;99.90;;;;;;5061850;28;25065;-74
2022/11/10 00:22:39;;;;;;;17.33;4.03;;;13.60;99.90;;;;;;5063346;28;25118;-74
2022/11/10 00:25:06;;;;;;;15.27;4.43;;;13.60;99.90;;;;;;5045505;28;25067;-74
2022/11/10 00:27:32;;;;;;;11.00;3.88;;;13.60;99.90;;;;;;5061890;28;25082;-74
2022/11/10 00:29:59;;;;;;;25.77;4.40;;;13.60;99.90;;;;;;5053619;28;25098;-74
2022/11/10 00:32:25;;;;;;;17.77;4.00;;;13.60;99.90;;;;;;5060233;28;25171;-74
2022/11/10 00:34:51;;;;;;;25.70;4.43;;;13.60;99.90;;;;;;5065701;28;25092;-74
2022/11/10 00:37:17;;;;;;;16.63;4.35;;;13.60;99.90;;;;;;5058266;28;25134;-73
2022/11/10 00:39:42;;;;;;;18.40;3.55;;;13.60;99.90;;;;;;5063228;28;25062;-72
2022/11/10 00:42:08;;;;;;;13.73;3.80;;;13.60;99.90;;;;;;5062631;28;25054;-73
2022/11/10 00:44:33;;;;;;;15.90;4.05;;;13.60;99.90;;;;;;5071988;28;25069;-73
2022/11/10 00:47:00;;;;;;;22.88;4.70;;;13.60;99.90;;;;;;5070916;28;25131;-74
2022/11/10 00:49:29;;;;;;;17.80;3.72;;;13.60;99.90;;;;;;5070534;28;25063;-74
2022/11/10 00:51:55;;;;;;;18.45;3.50;;;13.50;99.90;;;;;;5073240;28;25063;-74
2022/11/10 00:54:21;;;;;;;22.60;3.78;;;13.60;99.90;;;;;;5061935;28;25129;-76
2022/11/10 00:56:46;;;;;;;17.02;4.28;;;13.60;99.90;;;;;;5053163;28;25075;-75
2022/11/10 00:59:15;;;;;;;24.75;3.95;;;13.70;99.90;;;;;;5056821;28;25071;-76
2022/11/10 01:01:42;;;;;;;13.50;3.58;;;13.60;99.90;;;;;;5047349;28;25064;-75
2022/11/10 01:04:07;;;;;;;24.88;3.90;;;13.60;99.90;;;;;;5062695;28;25063;-73
2022/11/10 01:06:33;;;;;;;15.63;3.80;;;13.50;99.90;;;;;;5049140;28;25072;-74
2022/11/10 01:08:58;;;;;;;21.77;3.90;;;13.60;99.90;;;;;;5067016;28;25060;-75
2022/11/10 01:11:26;;;;;;;18.70;3.95;;;13.60;99.90;;;;;;5067524;28;25104;-76
2022/11/10 01:13:53;;;;;;;13.25;3.67;;;13.60;99.90;;;;;;5058926;28;25056;-77
2022/11/10 01:16:23;;;;;;;24.88;4.82;;;13.60;99.90;;;;;;5051210;28;25065;-79
2022/11/10 01:18:54;;;;;;;18.33;5.05;;;13.70;99.90;;;;;;5056858;28;25054;-77
2022/11/10 01:21:20;;;;;;;14.20;3.42;;;13.70;99.90;;;;;;5066518;28;25081;-75
2022/11/10 01:23:46;;;;;;;28.27;4.25;;;13.70;99.90;;;;;;5062409;28;25075;-75
2022/11/10 01:26:13;;;;;;;12.43;4.05;;;13.60;99.90;;;;;;5072999;28;25116;-73
2022/11/10 01:28:49;;;;;;;12.60;3.65;;;13.60;99.90;;;;;;5072406;28;25064;-79
2022/11/10 01:31:17;;;;;;;16.33;4.60;;;13.60;99.90;;;;;;5047119;28;25071;-73
2022/11/10 01:33:43;;;;;;;16.27;4.43;;;13.60;99.90;;;;;;5073789;28;25095;-76
2022/11/10 01:36:10;;;;;;;26.05;5.20;;;13.60;99.90;;;;;;5083983;28;25095;-75
2022/11/10 01:38:39;;;;;;;19.63;3.70;;;13.60;99.90;;;;;;5065959;28;25050;-75
2022/11/10 01:41:06;;;;;;;19.85;3.67;;;13.60;99.90;;;;;;5074842;28;25062;-77
2022/11/10 01:43:32;;;;;;;23.35;4.13;;;13.70;99.90;;;;;;5062366;28;25117;-76
2022/11/10 01:46:06;;;;;;;16.58;4.47;;;13.60;99.90;;;;;;5067475;28;25053;-76
2022/11/10 01:49:00;;;;;;;12.20;3.22;;;13.60;99.90;;;;;;5075475;28;25104;-75
2022/11/10 01:51:31;;;;;;;15.32;4.15;;;13.60;99.90;;;;;;5069946;28;25063;-76
2022/11/10 01:54:01;;;;;;;9.90;3.65;;;13.60;99.90;;;;;;5059158;28;25110;-81
2022/11/10 01:56:31;;;;;;;17.35;3.63;;;13.60;99.90;;;;;;5068441;28;25178;-75
2022/11/10 01:59:04;;;;;;;15.88;3.72;;;13.60;99.90;;;;;;5062089;28;25119;-75
2022/11/10 02:01:29;;;;;;;18.92;3.70;;;13.60;99.90;;;;;;5070849;28;25064;-78
2022/11/10 02:04:00;;;;;;;18.40;4.72;;;13.60;99.90;;;;;;5061358;28;25068;-74
2022/11/10 02:06:30;;;;;;;18.92;4.22;;;13.60;99.90;;;;;;5065560;28;25148;-75
2022/11/10 02:08:57;;;;;;;19.52;4.72;;;13.60;99.90;;;;;;5056642;28;25112;-74
2022/11/10 02:11:23;;;;;;;20.42;4.63;;;13.60;99.90;;;;;;5066537;28;25074;-73
2022/11/10 02:13:50;;;;;;;18.23;3.97;;;13.60;99.90;;;;;;5062836;28;25097;-75
2022/11/10 02:16:15;;;;;;;21.58;4.45;;;13.60;99.90;;;;;;5064551;28;25051;-76
2022/11/10 02:18:41;;;;;;;19.35;4.30;;;13.60;99.90;;;;;;5061303;28;25065;-74
2022/11/10 02:21:08;;;;;;;16.38;3.75;;;13.60;99.90;;;;;;5067763;28;25073;-77
2022/11/10 02:23:36;;;;;;;22.77;4.18;;;13.60;99.90;;;;;;5069283;28;25150;-74
2022/11/10 02:26:04;;;;;;;22.83;4.53;;;13.50;99.90;;;;;;5061152;28;25075;-74
2022/11/10 02:28:35;;;;;;;22.95;4.50;;;13.50;99.90;;;;;;5065321;28;25067;-75
2022/11/10 02:31:01;;;;;;;19.88;4.28;;;13.50;99.90;;;;;;5063796;28;25065;-74
2022/11/10 02:33:27;;;;;;;19.17;4.72;;;13.50;99.90;;;;;;5062286;28;25166;-77
2022/11/10 02:35:52;;;;;;;33.25;5.90;;;13.50;99.90;;;;;;5063795;28;25162;-76
2022/11/10 02:38:18;;;;;;;16.80;3.78;;;13.60;99.90;;;;;;5033651;28;25113;-73
2022/11/10 02:40:44;;;;;;;17.40;4.90;;;13.50;99.90;;;;;;5069273;28;25103;-74
2022/11/10 02:43:12;;;;;;;19.52;4.95;;;13.40;99.90;;;;;;5067309;28;25109;-76
2022/11/10 02:45:41;;;;;;;26.05;4.53;;;13.40;99.90;;;;;;5077831;28;25106;-77
2022/11/10 02:48:07;;;;;;;23.33;4.22;;;13.40;99.90;;;;;;5059538;28;25083;-75
2022/11/10 02:50:33;;;;;;;18.25;4.25;;;13.30;99.90;;;;;;5060446;28;25168;-75
2022/11/10 02:52:59;;;;;;;16.70;4.20;;;13.40;99.90;;;;;;5064207;28;25085;-76
2022/11/10 02:55:24;;;;;;;26.38;4.13;;;13.40;99.90;;;;;;5069693;28;25102;-77
2022/11/10 02:57:50;;;;;;;20.02;4.57;;;13.40;99.90;;;;;;5062010;28;25078;-77
2022/11/10 03:00:16;;;;;;;20.20;5.18;;;13.30;99.90;;;;;;5062162;28;25162;-75
2022/11/10 03:02:42;;;;;;;18.83;4.47;;;13.40;99.90;;;;;;5060421;28;25061;-75
2022/11/10 03:05:07;;;;;;;14.30;4.63;;;13.40;99.90;;;;;;5057243;28;25071;-75
2022/11/10 03:07:33;;;;;;;23.35;4.03;;;13.50;99.90;;;;;;5046286;28;25088;-75
2022/11/10 03:09:58;;;;;;;27.50;4.68;;;13.50;99.90;;;;;;5072786;28;25079;-74
2022/11/10 03:12:24;;;;;;;22.58;4.63;;;13.60;99.90;;;;;;5036025;28;25080;-76
2022/11/10 03:14:50;;;;;;;20.50;4.00;;;13.50;99.90;;;;;;5064634;28;25124;-75
2022/11/10 03:17:15;;;;;;;31.17;5.53;;;13.50;99.90;;;;;;5064840;28;25061;-77
2022/11/10 03:19:41;;;;;;;24.35;4.75;;;13.50;99.90;;;;;;5064164;28;25139;-74
2022/11/10 03:22:06;;;;;;;16.25;4.10;;;13.50;99.90;;;;;;5070015;28;25071;-75
2022/11/10 03:24:32;;;;;;;19.27;5.43;;;13.40;99.90;;;;;;5037400;28;25068;-75
2022/11/10 03:26:57;;;;;;;10.45;3.70;;;13.40;99.90;;;;;;5061872;28;25169;-74
2022/11/10 03:29:23;;;;;;;16.25;4.75;;;13.50;99.90;;;;;;5070647;28;25121;-78
2022/11/10 03:31:49;;;;;;;12.07;3.67;;;13.60;99.90;;;;;;5066498;28;24986;-75
2022/11/10 03:34:14;;;;;;;14.77;4.55;;;13.60;99.90;;;;;;5063157;28;25110;-76
2022/11/10 03:36:40;;;;;;;19.45;4.65;;;13.50;99.90;;;;;;5055314;28;25141;-75
2022/11/10 03:39:05;;;;;;;31.63;6.32;;;13.50;99.90;;;;;;5069217;28;25119;-74
2022/11/10 03:41:31;;;;;;;17.48;4.13;;;13.50;99.90;;;;;;5063938;28;25063;-75
2022/11/10 03:43:56;;;;;;;22.55;4.07;;;13.50;99.90;;;;;;5063585;28;25146;-73
2022/11/10 03:46:22;;;;;;;24.80;4.72;;;13.50;99.90;;;;;;5065631;28;25148;-74
2022/11/10 03:48:48;;;;;;;18.05;4.05;;;13.50;99.90;;;;;;5066732;28;25068;-76
2022/11/10 03:51:13;;;;;;;16.95;4.57;;;13.50;99.90;;;;;;5057936;28;25073;-78
2022/11/10 03:53:39;;;;;;;16.83;3.72;;;13.40;99.90;;;;;;5065033;28;25083;-77
2022/11/10 03:56:05;;;;;;;17.30;3.92;;;13.40;99.90;;;;;;5057882;28;25059;-75
2022/11/10 03:58:31;;;;;;;16.65;4.55;;;13.50;99.90;;;;;;5067853;28;25048;-78
2022/11/10 04:00:57;;;;;;;21.30;4.38;;;13.40;99.90;;;;;;5064933;28;25056;-75
2022/11/10 04:03:23;;;;;;;21.65;4.32;;;13.50;99.90;;;;;;5059861;28;25117;-76
2022/11/10 04:16:48;;;;;;;24.42;4.15;;;13.60;99.90;;;;;;5060790;28;25070;-75
2022/11/10 04:19:14;;;;;;;20.75;4.55;;;13.50;99.90;;;;;;5060760;28;25137;-76
2022/11/10 04:21:40;;;;;;;18.85;4.00;;;13.50;99.90;;;;;;5063706;28;25068;-75
2022/11/10 04:24:06;;;;;;;12.65;4.20;;;13.50;99.90;;;;;;5055493;28;25086;-75
2022/11/10 04:26:36;;;;;;;15.93;4.15;;;13.60;99.90;;;;;;5053459;28;25097;-75
2022/11/10 04:29:07;;;;;;;20.45;4.40;;;13.60;99.90;;;;;;5052780;28;25160;-77
2022/11/10 04:31:36;;;;;;;19.67;4.68;;;13.60;99.90;;;;;;5034122;28;25073;-74
2022/11/10 04:34:03;;;;;;;20.15;3.53;;;13.60;99.90;;;;;;5039786;28;25069;-74
2022/11/10 04:36:32;;;;;;;22.55;4.43;;;13.50;99.90;;;;;;5058746;28;25100;-76
2022/11/10 04:38:58;;;;;;;20.42;3.90;;;13.50;99.90;;;;;;5049089;28;25088;-74
2022/11/10 04:41:25;;;;;;;20.67;4.00;;;13.50;99.90;;;;;;5057134;28;25097;-74
2022/11/10 04:43:51;;;;;;;20.15;4.38;;;13.40;99.90;;;;;;5057482;28;25070;-76
2022/11/10 04:46:21;;;;;;;25.55;4.93;;;13.50;99.90;;;;;;5065417;28;25089;-71
2022/11/10 04:48:48;;;;;;;15.23;4.05;;;13.50;99.90;;;;;;5059486;28;25074;-73
2022/11/10 04:51:14;;;;;;;17.83;4.63;;;13.50;99.90;;;;;;5063840;28;25102;-74
2022/11/10 04:53:39;;;;;;;20.15;4.55;;;13.40;99.90;;;;;;5061692;28;25103;-73
2022/11/10 04:56:05;;;;;;;20.75;4.32;;;13.40;99.90;;;;;;5068629;28;25097;-75
2022/11/10 04:58:31;;;;;;;22.65;3.83;;;13.40;99.90;;;;;;5065044;28;25081;-75
2022/11/10 05:00:57;;;;;;;16.52;4.50;;;13.40;99.90;;;;;;5068634;28;25094;-74
2022/11/10 05:03:22;;;;;;;18.98;4.00;;;13.40;99.90;;;;;;5077244;28;25058;-74
2022/11/10 05:05:48;;;;;;;22.23;3.55;;;13.30;99.90;;;;;;5065212;28;25445;-75
2022/11/10 05:08:14;;;;;;;24.73;4.20;;;13.40;99.90;;;;;;5064354;28;25155;-73
2022/11/10 05:10:40;;;;;;;15.27;4.32;;;13.30;99.90;;;;;;5070728;28;25142;-73
2022/11/10 05:13:06;;;;;;;15.20;3.70;;;13.30;99.90;;;;;;5072717;28;25080;-76
2022/11/10 05:15:32;;;;;;;19.35;4.18;;;13.40;99.90;;;;;;5052702;28;25139;-76
2022/11/10 05:17:58;;;;;;;13.43;3.13;;;13.30;99.90;;;;;;5062954;28;25097;-75
2022/11/10 05:20:25;;;;;;;18.05;3.70;;;13.30;99.90;;;;;;5063585;28;25146;-76
2022/11/10 05:25:38;;;;;;;15.98;4.43;;;13.40;99.90;;;;;;5077689;28;25063;-76
2022/11/10 05:28:05;;;;;;;18.25;4.50;;;13.40;99.90;;;;;;5069215;28;25171;-75
2022/11/10 05:30:31;;;;;;;17.73;3.47;;;13.50;99.90;;;;;;5060931;28;25123;-76
2022/11/10 05:32:57;;;;;;;16.98;4.95;;;13.40;99.90;;;;;;5079332;28;25093;-75
2022/11/10 05:35:23;;;;;;;20.13;5.10;;;13.50;99.90;;;;;;5074325;28;25058;-75
2022/11/10 05:37:49;;;;;;;19.17;4.53;;;13.50;99.90;;;;;;5061355;28;25070;-75
2022/11/10 05:40:15;;;;;;;24.10;4.10;;;13.40;99.90;;;;;;5077836;28;25158;-75
2022/11/10 05:42:51;;;;;;;14.95;4.10;;;13.50;99.90;;;;;;5053282;28;25128;-73
2022/11/10 05:45:19;;;;;;;15.35;4.53;;;13.40;99.90;;;;;;5060017;28;25114;-73
2022/11/10 05:47:45;;;;;;;14.20;3.95;;;13.40;99.90;;;;;;5064611;28;25164;-75
2022/11/10 05:50:10;;;;;;;19.23;3.50;;;13.40;99.90;;;;;;5071738;28;25113;-73
2022/11/10 05:52:47;;;;;;;18.77;3.72;;;13.30;99.90;;;;;;5060684;28;25054;-74
2022/11/10 05:55:14;;;;;;;19.08;3.40;;;13.40;99.90;;;;;;5070244;28;25131;-75
2022/11/10 05:57:46;;;;;;;22.55;3.88;;;13.40;99.90;;;;;;5061808;28;25113;-75
2022/11/10 06:00:14;;;;;;;20.23;4.55;;;13.40;99.90;;;;;;5056858;28;25068;-75
2022/11/10 06:02:39;;;;;;;9.85;3.50;;;13.40;99.90;;;;;;5066623;28;25099;-75
2022/11/10 06:05:06;;;;;;;16.85;3.15;;;13.40;99.90;;;;;;5078135;28;25092;-73
2022/11/10 06:07:32;;;;;;;13.60;3.75;;;13.40;99.90;;;;;;5054732;28;25094;-72
2022/11/10 06:09:57;;;;;;;19.42;3.38;;;13.50;99.90;;;;;;5061912;28;25151;-75
2022/11/10 06:12:24;;;;;;;14.82;3.75;;;13.50;99.90;;;;;;5062454;28;25179;-75
2022/11/10 06:14:50;;;;;;;17.25;3.92;;;13.60;99.90;;;;;;5072200;28;25100;-76
2022/11/10 06:17:17;;;;;;;17.73;5.05;;;13.60;99.90;;;;;;5061604;28;25057;-75
2022/11/10 06:19:42;;;;;;;21.90;3.50;;;13.60;99.90;;;;;;5066851;28;24758;-75
2022/11/10 06:22:08;;;;;;;15.77;3.40;;;13.50;99.90;;;;;;5065178;28;25164;-76
2022/11/10 06:24:34;;;;;;;10.65;3.25;;;13.50;99.90;;;;;;5067650;28;25050;-74
2022/11/10 06:26:59;;;;;;;23.92;4.10;;;13.50;99.90;;;;;;5069040;28;25108;-74
2022/11/10 06:29:25;;;;;;;16.95;3.60;;;13.50;99.90;;;;;;5071157;28;25063;-76
2022/11/10 06:31:50;;;;;;;13.98;2.78;;;13.50;99.90;;;;;;5070247;28;25056;-75
2022/11/10 06:34:16;;;;;;;18.13;2.97;;;13.50;99.90;;;;;;5059952;28;25128;-75
2022/11/10 06:36:41;;;;;;;18.40;3.72;;;13.50;99.90;;;;;;5061764;28;25106;-76
2022/11/10 06:39:08;;;;;;;17.63;3.00;;;13.50;99.90;;;;;;5052669;28;25058;-75
2022/11/10 06:41:34;;;;;;;14.70;3.90;;;13.60;99.90;;;;;;5054688;28;25045;-75
2022/11/10 06:43:59;;;;;;;13.95;3.05;;;13.60;99.90;;;;;;5057874;28;25072;-75
2022/11/10 06:46:25;;;;;;;14.68;3.47;;;13.60;99.90;;;;;;5056146;28;25133;-75
2022/11/10 06:48:51;;;;;;;20.13;3.03;;;13.50;99.90;;;;;;5057238;28;25108;-76
2022/11/10 06:51:17;;;;;;;16.83;3.35;;;13.60;99.90;;;;;;5034343;28;25068;-74
2022/11/10 06:53:43;;;;;;;11.27;3.03;;;13.50;99.90;;;;;;5052320;28;25161;-77
2022/11/10 06:56:08;;;;;;;14.38;2.92;;;13.60;99.90;;;;;;5057534;28;25064;-75
2022/11/10 06:58:34;;;;;;;24.67;4.10;;;13.60;99.90;;;;;;5061369;28;25148;-74
2022/11/10 07:01:00;;;;;;;10.73;3.42;;;13.50;99.90;;;;;;5054152;28;25086;-73
2022/11/10 07:03:26;;;;;;;13.90;3.30;;;13.60;99.90;;;;;;5051424;28;25112;-74
2022/11/10 07:05:51;;;;;;;12.45;3.55;;;13.50;99.90;;;;;;5055625;28;24844;-73
2022/11/10 07:08:18;;;;;;;15.82;3.28;;;13.60;99.90;;;;;;5054110;28;25085;-73
2022/11/10 07:10:49;;;;;;;18.10;4.53;;;13.60;99.90;;;;;;5059563;28;25143;-74
2022/11/10 07:13:15;;;;;;;16.27;3.67;;;13.60;99.90;;;;;;5061952;28;25085;-74
2022/11/10 07:15:41;;;;;;;20.70;3.53;;;13.60;99.90;;;;;;5071346;28;25087;-75
2022/11/10 07:18:07;;;;;;;20.77;3.28;;;13.60;99.90;;;;;;5064177;28;25061;-73
2022/11/10 07:20:34;;;;;;;26.13;4.45;;;13.60;99.90;;;;;;5064885;28;25130;-74
2022/11/10 07:23:01;;;;;;;14.48;3.50;;;13.60;99.90;;;;;;5072587;28;25057;-73
2022/11/10 07:25:27;;;;;;;16.77;3.80;;;13.60;99.90;;;;;;5079773;28;25083;-73
2022/11/10 07:27:55;;;;;;;16.98;3.90;;;13.60;99.90;;;;;;5074584;28;25054;-74
2022/11/10 07:30:20;;;;;;;24.55;3.63;;;13.60;99.90;;;;;;5051250;28;25067;-75
2022/11/10 07:32:46;;;;;;;19.48;3.90;;;13.60;99.90;;;;;;5077931;28;25174;-72
2022/11/10 07:35:11;;;;;;;13.18;3.65;;;13.60;99.90;;;;;;5054179;28;25104;-74
2022/11/10 07:37:37;;;;;;;16.88;3.28;;;13.60;99.90;;;;;;5061212;28;25119;-74
2022/11/10 07:40:03;;;;;;;20.23;3.67;;;13.60;99.90;;;;;;5054889;28;25146;-73
2022/11/10 07:42:28;;;;;;;18.05;3.22;;;13.60;99.90;;;;;;5050885;28;25066;-74
2022/11/10 07:44:54;;;;;;;17.65;3.38;;;13.60;99.90;;;;;;5055721;28;25123;-74
2022/11/10 07:47:19;;;;;;;13.65;3.05;;;13.60;99.90;;;;;;5054592;28;25076;-73
2022/11/10 07:49:45;;;;;;;22.25;4.10;;;13.60;99.90;;;;;;5052927;28;25062;-74
2022/11/10 07:52:10;;;;;;;13.15;2.92;;;13.60;99.90;;;;;;5048377;28;25072;-73
2022/11/10 07:54:36;;;;;;;10.23;2.65;;;13.60;99.90;;;;;;5049925;28;25071;-72
2022/11/10 07:57:02;;;;;;;20.77;3.20;;;13.60;99.90;;;;;;5054835;28;25085;-74
2022/11/10 07:59:27;;;;;;;17.48;3.00;;;13.60;99.90;;;;;;5056220;28;25050;-73
2022/11/10 08:01:53;;;;;;;13.48;2.67;;;13.60;99.90;;;;;;5051640;28;25070;-73
2022/11/10 08:04:19;;;;;;;11.77;2.88;;;13.60;99.90;;;;;;5057512;28;25145;-73
2022/11/10 08:06:44;;;;;;;14.32;2.83;;;13.60;99.90;;;;;;5055361;28;25061;-75
2022/11/10 08:09:10;;;;;;;19.73;2.75;;;13.60;99.90;;;;;;5052829;28;25161;-74
2022/11/10 08:11:36;;;;;;;21.45;2.70;;;13.60;99.90;;;;;;5052141;28;25069;-73
2022/11/10 08:14:01;;;;;;;12.93;2.38;;;13.60;99.90;;;;;;5051404;28;25068;-72
2022/11/10 08:16:27;;;;;;;21.30;2.80;;;13.70;99.90;;;;;;5053432;28;25139;-74
2022/11/10 08:18:52;;;;;;;14.48;2.75;;;13.70;99.90;;;;;;5059657;28;25078;-73
2022/11/10 08:21:18;;;;;;;14.23;3.60;;;13.80;99.90;;;;;;5064978;28;25126;-74
2022/11/10 08:23:43;;;;;;;10.48;3.40;;;13.90;99.90;;;;;;5069006;28;25137;-75
2022/11/10 08:26:09;;;;;;;18.05;3.30;;;14.00;99.90;;;;;;5064269;28;25091;-73
2022/11/10 08:28:36;;;;;;;18.55;3.30;;;14.00;99.90;;;;;;5065051;28;25078;-73
2022/11/10 08:31:02;;;;;;;20.55;2.72;;;14.10;99.90;;;;;;5064909;28;25146;-74
2022/11/10 08:33:28;;;;;;;16.55;3.05;;;14.00;99.90;;;;;;5052081;28;25070;-73
2022/11/10 08:35:53;;;;;;;18.08;3.22;;;14.00;99.90;;;;;;5063594;28;25051;-72
2022/11/10 08:38:21;;;;;;;12.63;3.60;;;14.10;99.90;;;;;;5045729;28;25065;-73
2022/11/10 08:40:47;;;;;;;21.05;3.78;;;14.00;99.90;;;;;;5059209;28;25154;-74
2022/11/10 08:43:14;;;;;;;21.17;3.63;;;14.00;99.90;;;;;;5069407;28;25154;-73
2022/11/10 08:45:41;;;;;;;22.05;3.78;;;14.00;99.90;;;;;;5063482;28;25073;-74
2022/11/10 08:48:12;;;;;;;17.48;3.10;;;14.00;99.90;;;;;;5055141;28;25067;-72
2022/11/10 08:50:38;;;;;;;19.67;5.20;;;13.90;99.90;;;;;;5055853;28;25101;-75
2022/11/10 08:53:06;;;;;;;15.13;3.58;;;13.80;99.90;;;;;;5063377;28;25072;-75
2022/11/10 08:55:32;;;;;;;15.18;2.90;;;13.70;99.90;;;;;;5060758;28;25048;-75
2022/11/10 08:58:02;;;;;;;18.67;3.13;;;13.60;99.90;;;;;;5074037;28;25129;-76
2022/11/10 09:00:29;;;;;;;11.80;3.45;;;13.70;99.90;;;;;;5067113;28;25104;-74
2022/11/10 09:02:55;;;;;;;32.67;3.78;;;13.60;99.90;;;;;;5061333;28;25089;-72
2022/11/10 09:05:22;;;;;;;14.32;2.80;;;13.70;99.90;;;;;;5066847;28;25149;-78
2022/11/10 09:07:49;;;;;;;20.50;3.00;;;13.70;99.90;;;;;;5076514;28;25153;-75
2022/11/10 09:10:15;;;;;;;15.43;3.10;;;13.80;99.90;;;;;;5058267;28;25083;-74
2022/11/10 09:12:42;;;;;;;19.75;3.85;;;13.90;99.90;;;;;;5073456;28;25131;-73
2022/11/10 09:15:09;;;;;;;13.55;2.95;;;13.90;99.90;;;;;;5032617;28;25118;-73
2022/11/10 09:17:36;;;;;;;17.30;3.13;;;13.70;99.90;;;;;;5073721;28;25108;-76
2022/11/10 09:20:03;;;;;;;12.50;2.63;;;13.70;99.90;;;;;;5067119;28;25052;-76
2022/11/10 09:22:29;;;;;;;20.48;4.25;;;13.70;99.90;;;;;;5071995;28;25127;-72
2022/11/10 09:24:54;;;;;;;10.05;2.88;;;13.90;99.90;;;;;;5045740;28;25063;-71
2022/11/10 09:27:20;;;;;;;11.75;3.50;;;14.00;99.90;;;;;;5059312;28;25142;-72
2022/11/10 09:29:45;;;;;;;19.45;4.07;;;14.10;99.90;;;;;;5041654;28;25085;-72
2022/11/10 09:32:11;;;;;;;12.77;3.35;;;14.00;99.90;;;;;;5059591;28;25072;-71
2022/11/10 09:34:36;;;;;;;16.30;3.58;;;13.90;99.90;;;;;;5069722;28;25190;-73
2022/11/10 09:37:02;;;;;;;8.23;2.60;;;13.90;99.90;;;;;;5060384;28;25149;-74
2022/11/10 09:39:28;;;;;;;12.65;2.80;;;13.90;99.90;;;;;;5064379;28;25088;-74
2022/11/10 09:41:53;;;;;;;13.57;2.95;;;13.80;99.90;;;;;;5056638;28;25063;-76
2022/11/10 09:44:54;;;;;;;17.45;3.40;;;13.90;99.90;;;;;;5073323;28;25093;-78
2022/11/10 09:47:39;;;;;;;13.30;3.17;;;14.00;99.90;;;;;;5054042;28;25096;-76
2022/11/10 09:50:06;;;;;;;13.90;3.67;;;14.10;99.90;;;;;;5059141;28;25063;-75
2022/11/10 09:52:34;;;;;;;15.93;3.30;;;14.20;99.90;;;;;;5063222;28;25149;-75
2022/11/10 09:55:26;;;;;;;13.13;3.13;;;14.30;99.90;;;;;;5052454;28;25070;-77
2022/11/10 09:57:55;;;;;;;36.03;4.03;;;14.30;99.90;;;;;;5075767;28;25121;-74
2022/11/10 10:00:20;;;;;;;12.88;3.53;;;14.40;99.90;;;;;;5063776;28;25095;-78
2022/11/10 10:03:00;;;;;;;10.05;2.60;;;14.40;99.90;;;;;;5067958;28;25131;-73
2022/11/10 10:05:32;;;;;;;11.82;2.67;;;14.50;99.90;;;;;;5064437;28;25074;-74
2022/11/10 10:08:05;;;;;;;9.37;2.67;;;14.50;99.90;;;;;;5047990;28;25067;-75
2022/11/10 10:10:57;;;;;;;16.38;2.88;;;14.60;99.90;;;;;;5067149;28;25188;-77
2022/11/10 10:13:54;;;;;;;15.80;2.92;;;14.80;99.90;;;;;;5063886;28;25118;-76
2022/11/10 10:16:26;;;;;;;14.18;2.88;;;14.90;99.90;;;;;;5067832;28;25071;-75
2022/11/10 10:19:12;;;;;;;9.68;2.45;;;14.80;99.90;;;;;;5053307;28;25081;-77
2022/11/10 10:22:15;;;;;;;12.20;2.40;;;14.80;99.90;;;;;;5073443;28;25108;-73
2022/11/10 10:24:41;;;;;;;;;;;14.80;99.90;;;;;;5063477;28;25093;-73
2022/11/10 10:27:12;;;;;;;16.45;3.15;;;14.70;99.90;;;;;;5070213;28;25147;-75
2022/11/10 10:29:48;;;;;;;16.75;3.15;;;14.60;99.90;;;;;;5066625;28;25076;-76
2022/11/10 10:32:15;;;;;;;16.48;3.05;;;14.60;99.90;;;;;;5065532;28;25106;-75
2022/11/10 10:34:43;;;;;;;13.27;3.53;;;14.70;99.90;;;;;;5066664;28;25104;-74
2022/11/10 10:37:48;;;;;;;12.20;3.80;;;14.80;99.90;;;;;;5066342;28;25143;-75
2022/11/10 10:40:16;;;;;;;17.98;3.08;;;14.90;99.90;;;;;;5024720;28;25068;-74
2022/11/10 10:42:42;;;;;;;11.77;2.80;;;14.90;99.90;;;;;;5042454;28;25162;-73
2022/11/10 10:45:28;;;;;;;17.98;3.05;;;14.90;99.90;;;;;;5063287;28;25055;-72
2022/11/10 10:47:56;;;;;;;8.63;2.28;;;14.90;99.90;;;;;;5062510;28;25118;-74
2022/11/10 10:50:27;;;;;;;9.40;2.53;;;14.80;99.90;;;;;;5066045;28;25071;-73
2022/11/10 10:53:15;;;;;;;16.40;3.27;;;14.60;99.90;;;;;;5060397;28;25104;-74
2022/11/10 10:56:16;;;;;;;11.23;3.35;;;14.70;99.90;;;;;;5061454;28;25090;-74
2022/11/10 10:58:59;;;;;;;9.38;2.85;;;14.70;99.90;;;;;;5072287;28;25078;-74
2022/11/10 11:01:30;;;;;;;10.57;2.97;;;14.80;99.90;;;;;;5064261;28;25082;-74
2022/11/10 11:03:56;;;;;;;16.30;2.83;;;14.80;99.90;;;;;;5065019;28;25097;-74
2022/11/10 11:06:32;;;;;;;10.27;3.25;;;14.90;99.90;;;;;;5072524;28;25119;-75
2022/11/10 11:09:08;;;;;;;11.75;2.67;;;15.00;99.90;;;;;;5064571;28;25085;-76
2022/11/10 11:11:36;;;;;;;16.08;3.08;;;15.00;99.90;;;;;;5070958;28;25119;-75
2022/11/10 11:14:12;;;;;;;10.95;2.85;;;14.90;99.90;;;;;;5080762;28;25136;-75
2022/11/10 11:16:52;;;;;;;12.25;3.85;;;14.70;99.90;;;;;;5064487;28;25087;-75
2022/11/10 11:19:20;;;;;;;6.85;2.78;;;14.70;99.90;;;;;;5058631;28;25058;-75
2022/11/10 11:21:46;;;;;;;12.18;2.58;;;14.70;99.90;;;;;;5061789;28;25111;-74
2022/11/10 11:24:44;;;;;;;14.32;3.13;;;14.70;99.90;;;;;;5070579;28;25141;-77
2022/11/10 11:27:35;;;;;;;6.70;2.30;;;15.00;99.90;;;;;;5053971;28;25086;-73
2022/11/10 11:30:11;;;;;;;8.50;2.60;;;15.10;99.90;;;;;;5053208;28;25166;-75
2022/11/10 11:33:01;;;;;;;15.88;3.15;;;15.30;99.90;;;;;;5066708;28;25156;-73
2022/11/10 11:35:53;;;;;;;8.93;2.63;;;15.40;99.90;;;;;;5044483;28;25109;-77
2022/11/10 11:38:35;;;;;;;14.52;2.83;;;15.40;99.90;;;;;;5069005;28;25085;-74
2022/11/10 11:41:07;;;;;;;12.27;2.25;;;15.50;99.90;;;;;;5042562;28;25128;-74
2022/11/10 11:43:57;;;;;;;10.68;2.60;;;15.40;99.90;;;;;;5056298;28;25094;-74
2022/11/10 11:46:34;;;;;;;11.73;2.63;;;15.30;99.90;;;;;;5065205;28;25119;-76
2022/11/10 11:49:25;;;;;;;14.10;2.38;;;15.30;99.90;;;;;;5053257;28;25084;-75
2022/11/10 11:52:09;;;;;;;15.02;2.50;;;15.30;99.90;;;;;;5049783;28;25114;-74
2022/11/10 11:55:06;;;;;;;15.02;3.00;;;15.20;99.90;;;;;;5074871;28;25051;-76
2022/11/10 11:57:52;;;;;;;14.38;2.63;;;15.20;99.90;;;;;;5064483;28;25087;-75
2022/11/10 12:00:18;;;;;;;12.52;2.47;;;15.20;99.90;;;;;;5059802;28;25080;-74
2022/11/10 12:02:47;;;;;;;7.95;2.42;;;15.20;99.90;;;;;;5063659;28;25158;-73
2022/11/10 12:05:31;;;;;;;11.85;2.65;;;15.30;99.90;;;;;;5059160;28;25163;-74
2022/11/10 12:07:59;;;;;;;11.98;2.55;;;15.10;99.90;;;;;;5066423;28;25123;-74
2022/11/10 12:10:56;;;;;;;9.25;2.28;;;15.10;99.90;;;;;;5062257;28;25063;-74
2022/11/10 12:13:41;;;;;;;15.68;3.00;;;15.20;99.90;;;;;;5065665;28;25098;-73
2022/11/10 12:16:27;;;;;;;12.35;2.42;;;15.10;99.90;;;;;;5055126;28;25081;-75
2022/11/10 12:19:11;;;;;;;10.27;2.17;;;15.10;99.90;;;;;;5066335;28;25109;-74
2022/11/10 12:21:50;;;;;;;6.95;2.22;;;15.20;99.90;;;;;;5065981;28;25090;-73
2022/11/10 12:24:40;;;;;;;10.95;2.35;;;15.40;99.90;;;;;;5066768;28;25059;-72
2022/11/10 12:27:09;;;;;;;7.80;2.10;;;15.60;99.90;;;;;;5056016;28;25112;-73
2022/11/10 12:30:02;;;;;;;14.48;2.00;;;15.60;99.90;;;;;;5075320;28;25069;-74
2022/11/10 12:32:33;;;;;;;8.07;1.90;;;15.70;99.90;;;;;;5036061;28;25068;-74
2022/11/10 12:35:21;;;;;;;15.73;2.88;;;16.00;99.90;;;;;;5058242;28;25053;-73
2022/11/10 12:37:59;;;;;;;9.07;2.40;;;15.90;99.90;;;;;;5063879;28;25053;-73
2022/11/10 12:40:33;;;;;;;15.85;2.90;;;15.70;99.90;;;;;;5053230;28;25092;-74
2022/11/10 12:43:03;;;;;;;8.40;2.30;;;15.50;99.90;;;;;;5044171;28;25095;-72
2022/11/10 12:45:31;;;;;;;9.90;3.25;;;15.50;99.90;;;;;;5073478;28;25099;-76
2022/11/10 12:47:58;;;;;;;7.15;2.10;;;15.60;99.90;;;;;;5067957;28;25081;-74
2022/11/10 12:50:51;;;;;;;8.15;2.03;;;15.60;99.90;;;;;;5054426;28;25165;-74
2022/11/10 12:53:31;;;;;;;13.05;3.03;;;15.40;99.90;;;;;;5062970;28;25075;-74
2022/11/10 12:56:26;;;;;;;9.40;2.30;;;15.50;99.90;;;;;;5047315;28;25112;-73
2022/11/10 12:59:14;;;;;;;9.32;2.45;;;15.80;99.90;;;;;;5069093;28;25069;-74
2022/11/10 13:01:43;;;;;;;10.93;2.30;;;16.00;99.90;;;;;;5069912;28;25095;-72
2022/11/10 13:04:13;;;;;;;10.98;2.50;;;16.10;99.90;;;;;;5068027;28;25098;-73
2022/11/10 13:06:47;;;;;;;11.52;2.80;;;16.00;99.90;;;;;;5066587;28;25137;-74